Time;durP1;ratioP1;P1;durP2;ratioP2;P2;SDS_P1;SDS_P2;PMS_P1;PMS_P2;Temp;Humidity;BMP_temperature;BMP_pressure;BME280_temperature;BME280_humidity;BME280_pressure;Samples;Min_cycle;Max_cycle;Signal;HPM_P1;HPM_P2
2024/01/19 00:01:01;;;;;;;;;;;;;;;7.98;100.00;95541.05;110364;1242;60484;-58
2024/01/19 00:03:44;;;;;;;;;;;;;;;7.93;100.00;95541.66;110383;1248;72958;-59
2024/01/19 00:06:16;;;;;;;;;;;;;;;7.91;100.00;95544.77;110380;1241;67557;-58
2024/01/19 00:08:47;;;;;;;;;;;;;;;7.86;100.00;95546.61;110429;1242;68511;-60
2024/01/19 00:11:18;;;;;;;;;;;;;;;7.88;100.00;95555.63;110435;1242;60872;-60
2024/01/19 00:13:48;;;;;;;;;;;;;;;7.90;100.00;95558.58;110485;1242;60529;-60
2024/01/19 00:16:18;;;;;;;;;;;;;;;7.89;100.00;95565.27;110489;1239;72259;-61
2024/01/19 00:18:54;;;;;;;;;;;;;;;7.84;100.00;95564.89;110497;1241;68526;-59
2024/01/19 00:21:27;;;;;;;;;;;;;;;7.83;100.00;95572.62;110459;1238;68205;-60
2024/01/19 00:23:57;;;;;;;;;;;;;;;7.67;100.00;95583.73;110445;1241;60489;-58
2024/01/19 00:26:27;;;;;;;;;;;;;;;7.52;100.00;95589.64;110526;1242;60462;-59
2024/01/19 00:28:58;;;;;;;;;;;;;;;7.46;100.00;95599.65;110376;1242;72100;-59
2024/01/19 00:31:37;;;;;;;;;;;;;;;7.40;100.00;95594.83;110410;1242;69121;-60
2024/01/19 00:34:06;;;;;;;;;;;;;;;7.34;100.00;95608.56;110570;1241;68643;-59
2024/01/19 00:36:47;;;;;;;;;;;;;;;7.34;100.00;95619.59;110457;1241;60489;-59
2024/01/19 00:39:17;;;;;;;;;;;;;;;7.38;100.00;95628.92;110390;1239;60478;-59
2024/01/19 00:41:54;;;;;;;;;;;;;;;7.42;100.00;95627.95;110509;1238;72090;-59
2024/01/19 00:44:28;;;;;;;;;;;;;;;7.51;100.00;95630.28;110380;1242;68551;-61
2024/01/19 00:47:03;;;;;;;;;;;;;;;7.51;100.00;95629.35;110304;1241;68518;-61
2024/01/19 00:49:49;;;;;;;;;;;;;;;7.57;100.00;95634.90;110338;1242;60493;-59
2024/01/19 00:52:21;;;;;;;;;;;;;;;7.60;100.00;95638.60;110422;1241;60531;-59
2024/01/19 00:54:54;;;;;;;;;;;;;;;7.67;100.00;95641.16;110510;1241;71459;-59
2024/01/19 00:57:25;;;;;;;;;;;;;;;7.72;100.00;95648.15;110437;1241;68569;-59
2024/01/19 00:59:56;;;;;;;;;;;;;;;7.69;100.00;95649.31;110360;1241;70411;-59
2024/01/19 01:02:31;;;;;;;;;;;;;;;7.55;100.00;95655.84;110430;1244;60526;-58
2024/01/19 01:05:03;;;;;;;;;;;;;;;7.49;100.00;95655.90;110469;1238;60525;-58
2024/01/19 01:07:39;;;;;;;;;;;;;;;7.49;100.00;95661.64;110361;1242;70738;-59
2024/01/19 01:10:15;;;;;;;;;;;;;;;7.54;100.00;95661.40;110356;1242;69702;-60
2024/01/19 01:12:50;;;;;;;;;;;;;;;7.49;100.00;95671.82;110481;1241;68350;-60
2024/01/19 01:15:27;;;;;;;;;;;;;;;7.46;100.00;95673.33;110474;1241;60534;-60
2024/01/19 01:18:00;;;;;;;;;;;;;;;7.36;100.00;95673.98;110474;1241;60427;-60
2024/01/19 01:20:40;;;;;;;;;;;;;;;7.37;100.00;95677.55;110403;1242;71411;-58
2024/01/19 01:23:11;;;;;;;;;;;;;;;7.33;100.00;95681.27;110559;1238;69096;-59
2024/01/19 01:25:42;;;;;;;;;;;;;;;7.28;100.00;95688.77;110401;1238;68606;-58
2024/01/19 01:28:15;;;;;;;;;;;;;;;7.24;100.00;95690.16;110298;1242;60580;-59
2024/01/19 01:30:47;;;;;;;;;;;;;;;7.22;100.00;95697.11;110387;1241;60497;-60
2024/01/19 01:33:20;;;;;;;;;;;;;;;7.22;100.00;95698.86;110586;1240;72097;-60
2024/01/19 01:35:53;;;;;;;;;;;;;;;7.22;100.00;95701.77;110422;1248;69264;-60
2024/01/19 01:38:34;;;;;;;;;;;;;;;7.22;100.00;95701.98;110534;1242;69127;-61
2024/01/19 01:41:07;;;;;;;;;;;;;;;7.23;100.00;95704.52;110535;1241;60540;-61
2024/01/19 01:43:38;;;;;;;;;;;;;;;7.22;100.00;95707.31;110447;1238;60533;-58
2024/01/19 01:46:10;;;;;;;;;;;;;;;7.22;100.00;95710.05;110436;1238;71578;-59
2024/01/19 01:48:42;;;;;;;;;;;;;;;7.20;100.00;95710.75;110424;1241;69229;-59
2024/01/19 01:51:14;;;;;;;;;;;;;;;7.17;100.00;95714.33;110437;1241;69101;-62
2024/01/19 01:53:48;;;;;;;;;;;;;;;7.15;100.00;95713.46;110377;1241;60509;-60
2024/01/19 01:56:23;;;;;;;;;;;;;;;7.11;100.00;95713.56;110429;1241;60495;-59
2024/01/19 01:58:58;;;;;;;;;;;;;;;7.09;100.00;95715.00;110573;1238;71457;-60
2024/01/19 02:01:29;;;;;;;;;;;;;;;7.04;100.00;95719.55;110562;1238;69225;-60
2024/01/19 02:04:00;;;;;;;;;;;;;;;6.98;100.00;95713.02;110460;1241;68319;-60
2024/01/19 02:06:31;;;;;;;;;;;;;;;6.94;100.00;95718.59;110499;1240;60472;-59
2024/01/19 02:09:02;;;;;;;;;;;;;;;6.87;100.00;95724.31;110431;1239;60464;-60
2024/01/19 02:11:33;;;;;;;;;;;;;;;6.84;100.00;95723.21;110426;1238;72313;-60
2024/01/19 02:14:06;;;;;;;;;;;;;;;6.81;100.00;95726.38;110594;1239;68867;-60
2024/01/19 02:16:38;;;;;;;;;;;;;;;6.79;100.00;95734.50;110524;1238;68711;-59
2024/01/19 02:19:12;;;;;;;;;;;;;;;6.77;100.00;95745.23;110501;1241;60539;-60
2024/01/19 02:21:51;;;;;;;;;;;;;;;6.76;100.00;95752.46;110392;1241;60482;-58
2024/01/19 02:24:27;;;;;;;;;;;;;;;6.73;100.00;95755.50;110398;1240;72235;-60
2024/01/19 02:27:00;;;;;;;;;;;;;;;6.69;100.00;95757.23;110464;1238;69278;-59
2024/01/19 02:29:36;;;;;;;;;;;;;;;6.65;100.00;95761.52;110578;1241;68521;-60
2024/01/19 02:32:13;;;;;;;;;;;;;;;6.61;100.00;95765.48;110540;1238;60469;-60
2024/01/19 02:34:46;;;;;;;;;;;;;;;6.57;100.00;95769.79;110455;1238;60498;-60
2024/01/19 02:37:17;;;;;;;;;;;;;;;6.52;100.00;95777.13;110427;1242;72281;-59
2024/01/19 02:39:49;;;;;;;;;;;;;;;6.48;100.00;95786.14;110475;1238;68553;-60
2024/01/19 02:42:20;;;;;;;;;;;;;;;6.35;100.00;95793.61;110485;1238;69308;-59
2024/01/19 02:44:54;;;;;;;;;;;;;;;6.08;100.00;95797.81;110566;1241;60566;-59
2024/01/19 02:47:29;;;;;;;;;;;;;;;5.95;100.00;95797.64;110534;1241;60470;-59
2024/01/19 02:50:06;;;;;;;;;;;;;;;5.84;100.00;95800.70;110501;1238;71449;-59
2024/01/19 02:52:41;;;;;;;;;;;;;;;5.87;100.00;95805.21;110388;1239;68407;-59
2024/01/19 02:55:16;;;;;;;;;;;;;;;6.05;100.00;95803.23;110422;1242;69117;-62
2024/01/19 02:57:54;;;;;;;;;;;;;;;6.09;100.00;95799.43;110470;1244;60552;-59
2024/01/19 03:00:28;;;;;;;;;;;;;;;6.10;100.00;95800.38;110501;1241;60849;-59
2024/01/19 03:02:58;;;;;;;;;;;;;;;6.13;100.00;95800.54;110575;1241;72194;-60
2024/01/19 03:05:29;;;;;;;;;;;;;;;6.12;100.00;95801.16;110473;1241;69231;-59
2024/01/19 03:08:00;;;;;;;;;;;;;;;6.11;100.00;95804.84;110518;1241;69817;-60
2024/01/19 03:10:31;;;;;;;;;;;;;;;6.08;100.00;95809.22;110491;1241;60562;-59
2024/01/19 03:13:04;;;;;;;;;;;;;;;6.03;100.00;95807.58;110591;1241;60475;-60
2024/01/19 03:15:44;;;;;;;;;;;;;;;6.01;100.00;95808.43;110527;1241;72007;-62
2024/01/19 03:18:14;;;;;;;;;;;;;;;5.96;100.00;95807.30;110556;1238;70325;-59
2024/01/19 03:20:59;;;;;;;;;;;;;;;5.88;100.00;95800.74;110514;1238;69299;-59
2024/01/19 03:23:30;;;;;;;;;;;;;;;5.85;100.00;95799.95;110496;1238;60548;-58
2024/01/19 03:26:02;;;;;;;;;;;;;;;5.78;100.00;95797.91;110463;1241;60528;-59
2024/01/19 03:28:36;;;;;;;;;;;;;;;5.74;100.00;95804.32;110415;1241;72053;-59
2024/01/19 03:31:06;;;;;;;;;;;;;;;5.72;100.00;95812.05;110478;1241;69207;-60
2024/01/19 03:33:36;;;;;;;;;;;;;;;5.72;100.00;95812.44;110403;1242;69311;-60
2024/01/19 03:36:06;;;;;;;;;;;;;;;5.68;100.00;95807.72;110425;1238;60815;-60
2024/01/19 03:38:36;;;;;;;;;;;;;;;5.67;100.00;95809.93;110437;1241;60541;-60
2024/01/19 03:41:06;;;;;;;;;;;;;;;5.66;100.00;95815.86;110397;1241;72975;-60
2024/01/19 03:43:38;;;;;;;;;;;;;;;5.66;100.00;95820.20;110369;1241;69646;-60
2024/01/19 03:46:11;;;;;;;;;;;;;;;5.66;100.00;95821.04;110637;1238;68366;-59
2024/01/19 03:48:42;;;;;;;;;;;;;;;5.67;100.00;95821.95;110453;1238;60498;-60
2024/01/19 03:51:16;;;;;;;;;;;;;;;5.67;100.00;95823.69;110471;1241;60505;-60
2024/01/19 03:53:54;;;;;;;;;;;;;;;5.69;100.00;95830.10;110399;1239;72203;-59
2024/01/19 03:56:27;;;;;;;;;;;;;;;5.72;100.00;95830.91;110355;1241;69296;-60
2024/01/19 03:58:58;;;;;;;;;;;;;;;5.72;100.00;95838.68;110472;1238;68332;-60
2024/01/19 04:01:28;;;;;;;;;;;;;;;5.71;100.00;95841.42;110363;1243;60535;-60
2024/01/19 04:03:58;;;;;;;;;;;;;;;5.70;100.00;95847.04;110442;1241;60542;-59
2024/01/19 04:06:30;;;;;;;;;;;;;;;5.68;100.00;95847.36;110548;1241;71460;-59
2024/01/19 04:09:01;;;;;;;;;;;;;;;5.68;100.00;95846.23;110404;1242;69301;-59
2024/01/19 04:11:33;;;;;;;;;;;;;;;5.69;100.00;95848.96;110372;1241;69513;-58
2024/01/19 04:14:05;;;;;;;;;;;;;;;5.71;100.00;95848.96;110415;1241;60491;-57
2024/01/19 04:16:36;;;;;;;;;;;;;;;5.73;100.00;95851.03;110613;1241;60553;-59
2024/01/19 04:19:07;;;;;;;;;;;;;;;5.70;100.00;95854.05;110439;1241;71438;-60
2024/01/19 04:21:39;;;;;;;;;;;;;;;5.66;100.00;95854.58;110344;1241;69111;-59
2024/01/19 04:24:12;;;;;;;;;;;;;;;5.63;100.00;95853.70;110423;1241;69294;-60
2024/01/19 04:26:42;;;;;;;;;;;;;;;5.62;100.00;95852.89;110309;1238;60534;-59
2024/01/19 04:29:14;;;;;;;;;;;;;;;5.66;100.00;95855.11;110573;1238;60526;-60
2024/01/19 04:31:45;;;;;;;;;;;;;;;5.71;100.00;95856.05;110474;1241;71655;-60
2024/01/19 04:34:16;;;;;;;;;;;;;;;5.74;100.00;95855.16;110523;1242;69369;-60
2024/01/19 04:36:47;;;;;;;;;;;;;;;5.74;100.00;95857.95;110518;1238;69126;-60
2024/01/19 04:39:18;;;;;;;;;;;;;;;5.74;100.00;95857.42;110390;1238;60470;-60
2024/01/19 04:41:49;;;;;;;;;;;;;;;5.72;100.00;95856.52;110574;1241;60537;-60
2024/01/19 04:44:20;;;;;;;;;;;;;;;5.68;100.00;95852.50;110342;1241;72083;-58
2024/01/19 04:46:51;;;;;;;;;;;;;;;5.63;100.00;95857.05;110371;1241;69293;-60
2024/01/19 04:49:21;;;;;;;;;;;;;;;5.58;100.00;95858.80;110310;1242;68541;-60
2024/01/19 04:51:51;;;;;;;;;;;;;;;5.56;100.00;95871.92;110444;1241;60459;-60
2024/01/19 04:54:23;;;;;;;;;;;;;;;5.55;100.00;95885.30;110547;1241;60481;-59
2024/01/19 04:56:55;;;;;;;;;;;;;;;5.56;100.00;95893.52;110490;1241;72197;-60
2024/01/19 04:59:25;;;;;;;;;;;;;;;5.53;100.00;95900.48;110544;1241;69028;-60
2024/01/19 05:01:55;;;;;;;;;;;;;;;5.49;100.00;95900.05;110335;1241;68352;-59
2024/01/19 05:04:25;;;;;;;;;;;;;;;5.48;100.00;95899.27;110474;1239;60469;-59
2024/01/19 05:06:55;;;;;;;;;;;;;;;5.51;100.00;95898.24;110352;1242;60450;-60
2024/01/19 05:09:25;;;;;;;;;;;;;;;5.51;100.00;95898.39;110412;1238;72147;-59
2024/01/19 05:11:57;;;;;;;;;;;;;;;5.51;100.00;95895.32;110349;1238;69248;-59
2024/01/19 05:14:27;;;;;;;;;;;;;;;5.48;100.00;95893.29;110439;1238;68519;-59
2024/01/19 05:16:57;;;;;;;;;;;;;;;5.45;100.00;95896.75;110283;1241;60538;-60
2024/01/19 05:19:26;;;;;;;;;;;;;;;5.43;100.00;95897.24;110335;1241;60528;-60
2024/01/19 05:21:56;;;;;;;;;;;;;;;5.43;100.00;95903.02;110517;1238;71458;-59
2024/01/19 05:24:27;;;;;;;;;;;;;;;5.43;100.00;95905.92;110403;1241;67411;-60
2024/01/19 05:26:56;;;;;;;;;;;;;;;5.45;100.00;95906.13;110330;1241;69471;-59
2024/01/19 05:29:25;;;;;;;;;;;;;;;5.48;100.00;95907.41;110371;1241;60540;-59
2024/01/19 05:31:56;;;;;;;;;;;;;;;5.54;100.00;95908.20;110402;1241;60537;-59
2024/01/19 05:34:26;;;;;;;;;;;;;;;5.57;100.00;95905.66;110545;1242;71735;-61
2024/01/19 05:36:55;;;;;;;;;;;;;;;5.62;100.00;95910.16;110430;1241;69289;-61
2024/01/19 05:39:25;;;;;;;;;;;;;;;5.65;100.00;95914.48;110500;1241;68396;-60
2024/01/19 05:41:55;;;;;;;;;;;;;;;5.66;100.00;95917.30;110437;1241;60490;-61
2024/01/19 05:44:26;;;;;;;;;;;;;;;5.66;100.00;95917.61;110578;1239;60509;-61
2024/01/19 05:46:56;;;;;;;;;;;;;;;5.66;100.00;95917.67;110590;1241;71727;-60
2024/01/19 05:49:25;;;;;;;;;;;;;;;5.63;100.00;95919.79;110393;1242;69259;-61
2024/01/19 05:51:55;;;;;;;;;;;;;;;5.60;100.00;95917.88;110394;1241;70016;-61
2024/01/19 05:54:25;;;;;;;;;;;;;;;5.60;100.00;95917.92;110422;1238;60537;-60
2024/01/19 05:56:55;;;;;;;;;;;;;;;5.61;100.00;95916.60;110428;1241;60440;-61
2024/01/19 05:59:24;;;;;;;;;;;;;;;5.65;100.00;95918.23;110517;1240;72700;-60
2024/01/19 06:01:55;;;;;;;;;;;;;;;5.70;100.00;95921.27;110443;1238;69783;-59
2024/01/19 06:04:24;;;;;;;;;;;;;;;5.73;100.00;95924.56;110402;1241;69170;-61
2024/01/19 06:06:54;;;;;;;;;;;;;;;5.75;100.00;95931.86;110362;1241;60489;-61
2024/01/19 06:09:23;;;;;;;;;;;;;;;5.76;100.00;95932.59;110369;1241;60788;-60
2024/01/19 06:11:54;;;;;;;;;;;;;;;5.79;100.00;95941.34;110331;1238;71513;-60
2024/01/19 06:14:23;;;;;;;;;;;;;;;5.83;100.00;95941.58;110499;1241;69277;-60
2024/01/19 06:16:53;;;;;;;;;;;;;;;5.85;100.00;95951.39;110502;1241;69124;-60
2024/01/19 06:19:22;;;;;;;;;;;;;;;5.87;100.00;95961.65;110506;1241;60464;-61
2024/01/19 06:21:51;;;;;;;;;;;;;;;5.89;100.00;95958.39;110368;1241;60495;-61
2024/01/19 06:24:22;;;;;;;;;;;;;;;5.91;100.00;95956.17;110405;1242;73115;-60
2024/01/19 06:26:52;;;;;;;;;;;;;;;5.92;100.00;95962.69;110412;1241;69753;-61
2024/01/19 06:29:21;;;;;;;;;;;;;;;5.93;100.00;95958.60;110369;1242;69839;-61
2024/01/19 06:31:50;;;;;;;;;;;;;;;5.96;100.00;95960.13;110401;1241;60566;-61
2024/01/19 06:34:20;;;;;;;;;;;;;;;5.99;100.00;95960.06;110446;1241;60443;-61
2024/01/19 06:36:51;;;;;;;;;;;;;;;6.02;100.00;95957.61;110446;1241;72534;-61
2024/01/19 06:39:20;;;;;;;;;;;;;;;6.03;100.00;95951.81;110443;1242;69656;-60
2024/01/19 06:41:50;;;;;;;;;;;;;;;6.04;100.00;95953.94;110469;1238;68526;-61
2024/01/19 06:44:20;;;;;;;;;;;;;;;6.05;100.00;95949.71;110442;1238;60538;-60
2024/01/19 06:46:50;;;;;;;;;;;;;;;6.07;100.00;95948.35;110413;1241;60889;-60
2024/01/19 06:49:19;;;;;;;;;;;;;;;6.09;100.00;95945.27;110411;1238;72770;-61
2024/01/19 06:51:48;;;;;;;;;;;;;;;6.12;100.00;95947.77;110474;1242;68477;-60
2024/01/19 06:54:20;;;;;;;;;;;;;;;6.17;100.00;95948.70;110494;1239;69117;-61
2024/01/19 06:56:49;;;;;;;;;;;;;;;6.21;100.00;95952.29;110437;1241;60458;-61
2024/01/19 06:59:19;;;;;;;;;;;;;;;6.26;100.00;95951.35;110447;1241;60493;-61
2024/01/19 07:01:49;;;;;;;;;;;;;;;6.32;100.00;95946.05;110392;1241;72053;-59
2024/01/19 07:04:20;;;;;;;;;;;;;;;6.38;100.00;95951.28;110447;1241;69812;-62
2024/01/19 07:06:49;;;;;;;;;;;;;;;6.44;100.00;95951.53;110417;1241;68511;-59
2024/01/19 07:09:19;;;;;;;;;;;;;;;6.50;100.00;95950.31;110388;1238;60457;-60
2024/01/19 07:11:49;;;;;;;;;;;;;;;6.57;100.00;95957.73;110400;1241;60460;-60
2024/01/19 07:14:18;;;;;;;;;;;;;;;6.60;100.00;95962.15;110401;1241;72735;-60
2024/01/19 07:16:48;;;;;;;;;;;;;;;6.63;100.00;95964.35;110437;1241;69254;-59
2024/01/19 07:19:19;;;;;;;;;;;;;;;6.67;100.00;95963.54;110378;1238;68083;-59
2024/01/19 07:21:48;;;;;;;;;;;;;;;6.71;100.00;95963.22;110373;1241;60913;-59
2024/01/19 07:24:19;;;;;;;;;;;;;;;6.76;100.00;95960.55;110422;1241;60540;-60
2024/01/19 07:26:49;;;;;;;;;;;;;;;6.81;100.00;95959.11;110414;1238;71245;-60
2024/01/19 07:29:18;;;;;;;;;;;;;;;6.86;100.00;95960.39;110386;1241;69797;-60
2024/01/19 07:31:48;;;;;;;;;;;;;;;6.92;100.00;95964.79;110352;1239;69261;-60
2024/01/19 07:34:18;;;;;;;;;;;;;;;6.94;100.00;95969.87;110374;1241;60553;-59
2024/01/19 07:36:47;;;;;;;;;;;;;;;6.95;100.00;95972.17;110392;1241;60487;-60
2024/01/19 07:39:23;;;;;;;;;;;;;;;6.96;100.00;95973.00;110441;1241;72806;-61
2024/01/19 07:41:52;;;;;;;;;;;;;;;6.97;100.00;95972.16;110457;1240;68531;-61
2024/01/19 07:44:22;;;;;;;;;;;;;;;6.99;100.00;95970.67;110480;1242;69202;-58
2024/01/19 07:46:51;;;;;;;;;;;;;;;6.97;100.00;95970.08;110429;1241;60479;-60
2024/01/19 07:49:21;;;;;;;;;;;;;;;6.93;100.00;95965.43;110458;1238;60598;-61
2024/01/19 07:51:50;;;;;;;;;;;;;;;6.86;100.00;95956.48;110523;1241;72814;-60
2024/01/19 07:54:20;;;;;;;;;;;;;;;6.82;100.00;95954.36;110636;1241;69416;-60
2024/01/19 07:56:50;;;;;;;;;;;;;;;6.80;100.00;95956.81;110727;1242;69909;-60
2024/01/19 07:59:19;;;;;;;;;;;;;;;6.78;100.00;95961.47;110787;1241;60554;-60
2024/01/19 08:01:49;;;;;;;;;;;;;;;6.82;100.00;95958.52;110781;1242;60511;-60
2024/01/19 08:04:18;;;;;;;;;;;;;;;6.89;100.00;95958.99;110529;1238;72145;-62
2024/01/19 08:06:47;;;;;;;;;;;;;;;6.92;100.00;95958.44;110469;1241;69790;-61
2024/01/19 08:09:17;;;;;;;;;;;;;;;6.96;100.00;95963.46;110460;1242;68352;-60
2024/01/19 08:11:46;;;;;;;;;;;;;;;7.03;100.00;95962.31;110486;1241;60528;-59
2024/01/19 08:14:15;;;;;;;;;;;;;;;7.11;100.00;95957.89;110436;1241;60464;-61
2024/01/19 08:16:44;;;;;;;;;;;;;;;7.19;100.00;95953.98;110498;1241;72679;-61
2024/01/19 08:19:14;;;;;;;;;;;;;;;7.28;100.00;95958.55;110469;1241;69793;-62
2024/01/19 08:21:43;;;;;;;;;;;;;;;7.35;100.00;95957.12;110466;1242;69826;-62
2024/01/19 08:24:13;;;;;;;;;;;;;;;7.42;100.00;95944.96;110432;1241;60463;-62
2024/01/19 08:26:43;;;;;;;;;;;;;;;7.44;100.00;95938.71;110453;1241;60515;-61
2024/01/19 08:29:12;;;;;;;;;;;;;;;7.47;100.00;95938.77;110509;1238;72790;-62
2024/01/19 08:31:43;;;;;;;;;;;;;;;7.51;100.00;95936.22;110489;1242;69603;-61
2024/01/19 08:34:13;;;;;;;;;;;;;;;7.57;100.00;95941.05;110487;1241;69284;-62
2024/01/19 08:36:42;;;;;;;;;;;;;;;7.63;100.00;95948.34;110394;1242;60485;-61
2024/01/19 08:39:11;;;;;;;;;;;;;;;7.71;100.00;95957.41;110384;1241;60547;-61
2024/01/19 08:41:42;;;;;;;;;;;;;;;7.77;100.00;95964.67;110446;1248;72773;-61
2024/01/19 08:44:11;;;;;;;;;;;;;;;7.82;100.00;95968.42;110458;1238;68771;-61
2024/01/19 08:46:44;;;;;;;;;;;;;;;7.86;100.00;95969.38;110461;1241;69875;-61
2024/01/19 08:49:13;;;;;;;;;;;;;;;7.86;100.00;95973.33;110428;1247;60465;-62
2024/01/19 08:51:43;;;;;;;;;;;;;;;7.86;100.00;95975.02;110469;1241;60485;-60
2024/01/19 08:54:13;;;;;;;;;;;;;;;7.87;100.00;95971.82;110462;1241;73244;-60
2024/01/19 08:56:42;;;;;;;;;;;;;;;7.89;100.00;95972.73;110401;1238;68482;-60
2024/01/19 08:59:22;;;;;;;;;;;;;;;7.92;100.00;95971.27;110438;1238;70239;-60
2024/01/19 09:01:56;;;;;;;;;;;;;;;7.94;100.00;95975.91;110494;1238;60535;-60
2024/01/19 09:04:25;;;;;;;;;;;;;;;7.96;100.00;95977.48;110488;1242;60469;-61
2024/01/19 09:06:55;;;;;;;;;;;;;;;7.97;100.00;95975.15;110587;1241;72754;-60
2024/01/19 09:09:27;;;;;;;;;;;;;;;7.97;100.00;95978.08;110414;1241;69784;-60
2024/01/19 09:11:57;;;;;;;;;;;;;;;7.98;100.00;95974.76;110510;1241;69857;-60
2024/01/19 09:14:26;;;;;;;;;;;;;;;7.98;100.00;95973.73;110567;1241;60542;-60
2024/01/19 09:16:55;;;;;;;;;;;;;;;7.97;100.00;95974.27;110476;1242;60559;-60
2024/01/19 09:19:26;;;;;;;;;;;;;;;7.94;100.00;95970.19;110532;1241;72176;-60
2024/01/19 09:21:55;;;;;;;;;;;;;;;7.96;100.00;95969.88;110567;1241;69217;-60
2024/01/19 09:24:24;;;;;;;;;;;;;;;7.97;100.00;95970.00;110435;1243;69701;-60
2024/01/19 09:26:56;;;;;;;;;;;;;;;7.99;100.00;95971.70;110553;1239;60466;-60
2024/01/19 09:29:26;;;;;;;;;;;;;;;8.01;100.00;95973.46;110521;1241;60470;-60
2024/01/19 09:31:55;;;;;;;;;;;;;;;8.03;100.00;95963.88;110603;1241;72182;-60
2024/01/19 09:34:24;;;;;;;;;;;;;;;8.06;100.00;95962.23;110472;1241;69139;-60
2024/01/19 09:36:54;;;;;;;;;;;;;;;8.10;100.00;95961.55;110529;1242;69851;-60
2024/01/19 09:39:23;;;;;;;;;;;;;;;8.12;100.00;95958.04;110479;1239;60498;-60
2024/01/19 09:42:00;;;;;;;;;;;;;;;8.15;100.00;95955.88;110565;1238;60515;-60
2024/01/19 09:44:36;;;;;;;;;;;;;;;8.18;100.00;95951.83;110486;1242;72117;-60
2024/01/19 09:47:15;;;;;;;;;;;;;;;8.22;100.00;95953.61;110576;1238;68523;-59
2024/01/19 09:49:57;;;;;;;;;;;;;;;8.23;100.00;95949.35;110389;1242;68794;-61
2024/01/19 09:52:35;;;;;;;;;;;;;;;8.26;100.00;95947.88;110520;1241;60479;-60
2024/01/19 09:55:06;;;;;;;;;;;;;;;8.30;100.00;95944.19;110518;1241;60460;-60
2024/01/19 09:57:42;;;;;;;;;;;;;;;8.35;100.00;95939.63;110349;1242;71677;-60
2024/01/19 10:00:16;;;;;;;;;;;;;;;8.39;100.00;95937.86;110341;1241;69219;-60
2024/01/19 10:02:50;;;;;;;;;;;;;;;8.44;100.00;95932.47;110422;1241;69244;-60
2024/01/19 10:05:21;;;;;;;;;;;;;;;8.47;100.00;95931.80;110400;1241;60537;-60
2024/01/19 10:07:58;;;;;;;;;;;;;;;8.50;100.00;95935.00;110370;1242;60532;-59
2024/01/19 10:10:27;;;;;;;;;;;;;;;8.54;100.00;95938.10;110347;1241;71433;-60
2024/01/19 10:12:56;;;;;;;;;;;;;;;8.57;100.00;95934.19;110429;1242;69248;-60
2024/01/19 10:15:25;;;;;;;;;;;;;;;8.61;100.00;95932.09;110334;1248;69783;-60
2024/01/19 10:17:55;;;;;;;;;;;;;;;8.66;100.00;95928.06;110362;1242;60505;-60
2024/01/19 10:20:24;;;;;;;;;;;;;;;8.69;100.00;95924.64;110495;1241;60487;-60
2024/01/19 10:22:54;;;;;;;;;;;;;;;8.73;100.00;95919.48;110406;1241;72054;-60
2024/01/19 10:25:23;;;;;;;;;;;;;;;8.75;100.00;95918.94;110349;1241;69770;-60
2024/01/19 10:27:52;;;;;;;;;;;;;;;8.77;100.00;95918.77;110333;1242;69281;-60
2024/01/19 10:30:23;;;;;;;;;;;;;;;8.81;100.00;95916.29;110349;1242;60455;-60
2024/01/19 10:33:05;;;;;;;;;;;;;;;8.86;100.00;95917.90;110376;1241;60492;-60
2024/01/19 10:35:36;;;;;;;;;;;;;;;8.92;100.00;95919.52;110366;1241;71745;-60
2024/01/19 10:38:10;;;;;;;;;;;;;;;8.96;100.00;95920.14;110347;1241;68535;-60
2024/01/19 10:40:39;;;;;;;;;;;;;;;8.98;100.00;95917.19;110372;1238;69333;-60
2024/01/19 10:43:21;;;;;;;;;;;;;;;8.99;100.00;95916.80;110324;1243;60540;-60
2024/01/19 10:45:50;;;;;;;;;;;;;;;9.01;100.00;95915.58;110368;1242;60926;-60
2024/01/19 10:48:25;;;;;;;;;;;;;;;9.02;100.00;95915.07;110472;1241;72645;-60
2024/01/19 10:51:01;;;;;;;;;;;;;;;9.02;100.00;95911.80;110465;1242;69951;-60
2024/01/19 10:53:30;;;;;;;;;;;;;;;9.03;100.00;95908.30;110509;1242;69210;-60
2024/01/19 10:55:59;;;;;;;;;;;;;;;9.02;100.00;95904.36;110370;1242;60450;-59
2024/01/19 10:58:32;;;;;;;;;;;;;;;9.01;100.00;95899.58;110414;1241;60464;-59
2024/01/19 11:01:14;;;;;;;;;;;;;;;9.00;100.00;95901.56;110462;1242;72300;-59
2024/01/19 11:03:44;;;;;;;;;;;;;;;8.99;100.00;95896.82;110378;1242;69242;-61
2024/01/19 11:06:13;;;;;;;;;;;;;;;8.98;100.00;95891.15;109938;1241;596543;-61
2024/01/19 11:08:42;;;;;;;;;;;;;;;8.98;100.00;95892.58;110514;1241;60459;-60
2024/01/19 11:11:13;;;;;;;;;;;;;;;8.96;100.00;95894.43;110436;1241;60481;-60
2024/01/19 11:13:43;;;;;;;;;;;;;;;8.93;100.00;95894.02;110500;1242;72205;-60
2024/01/19 11:16:14;;;;;;;;;;;;;;;8.91;100.00;95893.54;110599;1241;69844;-60
2024/01/19 11:18:44;;;;;;;;;;;;;;;8.88;100.00;95895.29;110356;1242;69985;-60
2024/01/19 11:21:13;;;;;;;;;;;;;;;8.83;100.00;95894.21;110446;1242;60580;-61
2024/01/19 11:23:43;;;;;;;;;;;;;;;8.82;100.00;95893.98;110496;1242;60538;-59
2024/01/19 11:26:31;;;;;;;;;;;;;;;8.75;100.00;95894.26;110596;1242;72259;-59
2024/01/19 11:29:03;;;;;;;;;;;;;;;8.71;100.00;95897.08;110519;1239;69292;-60
2024/01/19 11:31:33;;;;;;;;;;;;;;;8.68;100.00;95898.20;110482;1242;69311;-60
2024/01/19 11:34:02;;;;;;;;;;;;;;;8.64;100.00;95900.94;110506;1241;60491;-60
2024/01/19 11:36:38;;;;;;;;;;;;;;;8.62;100.00;95899.20;110542;1242;60433;-60
2024/01/19 11:39:13;;;;;;;;;;;;;;;8.61;100.00;95899.46;110529;1241;71908;-60
2024/01/19 11:41:46;;;;;;;;;;;;;;;8.60;100.00;95898.02;110629;1238;68582;-60
2024/01/19 11:44:34;;;;;;;;;;;;;;;8.59;100.00;95895.80;110524;1240;69869;-60
2024/01/19 11:47:03;;;;;;;;;;;;;;;8.58;100.00;95888.78;110373;1241;60556;-60
2024/01/19 11:49:38;;;;;;;;;;;;;;;8.57;100.00;95885.28;110355;1241;60569;-61
2024/01/19 11:52:13;;;;;;;;;;;;;;;8.57;100.00;95884.44;110449;1238;73142;-59
2024/01/19 11:54:42;;;;;;;;;;;;;;;8.56;100.00;95882.96;110395;1238;69220;-59
2024/01/19 11:57:16;;;;;;;;;;;;;;;8.55;100.00;95884.40;110391;1241;69849;-59
2024/01/19 11:59:45;;;;;;;;;;;;;;;8.54;100.00;95883.23;110427;1241;60540;-60
2024/01/19 12:02:21;;;;;;;;;;;;;;;8.55;100.00;95880.20;110419;1241;60439;-59
2024/01/19 12:04:52;;;;;;;;;;;;;;;8.56;100.00;95879.45;110377;1238;72124;-59
2024/01/19 12:07:24;;;;;;;;;;;;;;;8.57;100.00;95881.73;110472;1238;69255;-59
2024/01/19 12:10:12;;;;;;;;;;;;;;;8.61;100.00;95881.42;110341;1242;68400;-60
2024/01/19 12:12:41;;;;;;;;;;;;;;;8.65;100.00;95877.41;110371;1241;60955;-60
2024/01/19 12:15:10;;;;;;;;;;;;;;;8.67;100.00;95878.94;110317;1241;60470;-60
2024/01/19 12:17:40;;;;;;;;;;;;;;;8.70;100.00;95876.69;110375;1241;72254;-60
2024/01/19 12:20:11;;;;;;;;;;;;;;;8.73;100.00;95876.75;110381;1242;68457;-60
2024/01/19 12:22:39;;;;;;;;;;;;;;;8.76;100.00;95869.88;110452;1241;69339;-60
2024/01/19 12:25:13;;;;;;;;;;;;;;;8.80;100.00;95874.73;110543;1241;60495;-60
2024/01/19 12:27:43;;;;;;;;;;;;;;;8.83;100.00;95874.64;110477;1242;60867;-60
2024/01/19 12:30:14;;;;;;;;;;;;;;;8.85;100.00;95875.66;110396;1242;72220;-59
2024/01/19 12:32:44;;;;;;;;;;;;;;;8.87;100.00;95880.31;110425;1241;69383;-60
2024/01/19 12:35:18;;;;;;;;;;;;;;;8.89;100.00;95883.25;110331;1241;69282;-60
2024/01/19 12:37:48;;;;;;;;;;;;;;;8.91;100.00;95888.96;110377;1242;60542;-60
2024/01/19 12:40:18;;;;;;;;;;;;;;;8.94;100.00;95883.00;110368;1241;60405;-60
2024/01/19 12:42:47;;;;;;;;;;;;;;;8.97;100.00;95884.67;110336;1242;72203;-59
2024/01/19 12:45:19;;;;;;;;;;;;;;;8.97;100.00;95886.95;110474;1242;69171;-60
2024/01/19 12:47:49;;;;;;;;;;;;;;;8.97;100.00;95889.20;110391;1242;69879;-60
2024/01/19 12:50:18;;;;;;;;;;;;;;;8.96;100.00;95899.02;110362;1242;60540;-60
2024/01/19 12:52:51;;;;;;;;;;;;;;;8.92;100.00;95897.55;110528;1242;60401;-60
2024/01/19 12:55:27;;;;;;;;;;;;;;;8.92;100.00;95898.10;110480;1242;72634;-60
2024/01/19 12:57:56;;;;;;;;;;;;;;;8.93;100.00;95902.05;110384;1241;68816;-59